Estación Meteorológica Peña el Pijo (Robertgarden) [ 01/30/23 13:57:44 CET ]

Fecha Hora Presion(HPa) Temp (°C) Humedad % Rocio (°C) Viento ( m/s) Direccion Lluvia 1Hora(mm) Lluvia 24H(mm) LLuvia Total(mm)
2012-Jul-10 01:01:17 1011.800 16.3 36 1.1         167.83
2012-Jul-10 02:01:13 1011.400 15.6 36 0.5         167.83
2012-Jul-10 03:01:48 1011.100 13.8 41 0.7         167.83
2012-Jul-10 04:10:06 1011.100 12.5 45 0.8         167.83
2012-Jul-10 05:01:13 1011.200 13.3 45 1.5         167.83
2012-Jul-10 06:01:14 1011.000 12.5 48 1.7         167.83
2012-Jul-10 07:01:17 1011.400 10.9 55 2.2         167.83
2012-Jul-10 08:01:13 1011.500 13.6 56 5.0         167.83
2012-Jul-10 09:01:13 1011.700 21.3 45 8.8         167.83
2012-Jul-10 10:01:13 1011.600 26.7 27 6.0         167.83
2012-Jul-10 11:01:13 1011.600 30.2 19 3.8 0.3 SSW     167.83
2012-Jul-10 12:01:16 1011.400 32.1 14 0.6         167.83
2012-Jul-10 13:01:13 1011.200 34.1 10 -1.8 0.6 WNW     167.83
2012-Jul-10 14:01:12 1011.000 34.9 10 -1.2 0.6 SSW     167.83
2012-Jul-10 15:01:13 1010.600 36.8 10 0.2         167.83
2012-Jul-10 16:01:17 1010.500 36.9 - - 1.3 NE     167.83
2012-Jul-10 17:01:18 1010.100 37.4 - -         167.83
2012-Jul-10 18:01:14 1010.400 36.1 - -         167.83
2012-Jul-10 19:01:11 1010.500 34.7 10 -1.3 1.9 S     167.83
2012-Jul-10 20:01:14 1010.800 33.1 11 -1.6 1.0 SW     167.83
2012-Jul-10 21:01:17 1011.300 28.3 14 -2.4         167.83
2012-Jul-10 22:01:11 1012.000 23.5 21 -0.1         167.83
2012-Jul-10 23:01:14 1013.100 19.9 26 -0.4         167.83

Temperatura Máxima:37°    Temperatura Mínima:10°
Presión Máxima:1013.100 Hpa    Presión Mínima:1010.100 Hpa


Volver